Time;durP1;ratioP1;P1;durP2;ratioP2;P2;SDS_P1;SDS_P2;PMS_P1;PMS_P2;Temp;Humidity;BMP_temperature;BMP_pressure;BME280_temperature;BME280_humidity;BME280_pressure;Samples;Min_cycle;Max_cycle;Signal;HPM_P1;HPM_P2
2021/12/06 00:00:52;;;;;;;40.13;23.02;;;;;;;;;;5083100;28;20052;-30
2021/12/06 00:03:20;;;;;;;37.53;22.70;;;;;;;;;;5090919;28;20036;-29
2021/12/06 00:05:46;;;;;;;43.25;23.88;;;;;;;;;;5090898;28;20036;-30
2021/12/06 00:08:13;;;;;;;40.95;22.15;;;;;;;;;;5090720;28;20043;-30
2021/12/06 00:10:40;;;;;;;43.92;24.00;;;;;;;;;;5090757;28;20548;-30
2021/12/06 00:13:06;;;;;;;40.33;22.77;;;;;;;;;;5090551;28;20504;-30
2021/12/06 00:15:33;;;;;;;37.25;21.38;;;;;;;;;;5090381;28;20040;-28
2021/12/06 00:18:05;;;;;;;43.63;24.08;;;;;;;;;;5090964;28;20488;-29
2021/12/06 00:20:31;;;;;;;39.75;22.85;;;;;;;;;;5092385;28;20040;-31
2021/12/06 00:22:57;;;;;;;35.83;21.50;;;;;;;;;;5094346;28;20500;-30
2021/12/06 00:25:26;;;;;;;39.08;22.38;;;;;;;;;;5094561;28;20043;-31
2021/12/06 00:27:52;;;;;;;40.90;23.95;;;;;;;;;;5094394;28;20038;-29
2021/12/06 00:30:19;;;;;;;36.45;21.45;;;;;;;;;;5093991;28;20126;-29
2021/12/06 00:32:46;;;;;;;40.65;23.33;;;;;;;;;;5085878;28;20051;-30
2021/12/06 00:35:18;;;;;;;37.63;21.65;;;;;;;;;;5094162;28;20488;-30
2021/12/06 00:37:54;;;;;;;42.90;22.85;;;;;;;;;;5072954;28;20048;-30
2021/12/06 00:40:20;;;;;;;39.50;22.30;;;;;;;;;;5090478;28;20080;-30
2021/12/06 00:42:46;;;;;;;36.22;21.13;;;;;;;;;;5094084;28;20504;-30
2021/12/06 00:45:12;;;;;;;36.42;21.60;;;;;;;;;;5094138;28;20044;-32
2021/12/06 00:47:38;;;;;;;35.28;21.30;;;;;;;;;;5093823;28;20039;-29
2021/12/06 00:50:05;;;;;;;34.97;20.50;;;;;;;;;;5094038;28;20222;-30
2021/12/06 00:52:31;;;;;;;31.88;19.27;;;;;;;;;;5094328;28;20474;-30
2021/12/06 00:54:58;;;;;;;33.38;20.15;;;;;;;;;;5094372;28;20082;-28
2021/12/06 00:57:24;;;;;;;35.63;22.27;;;;;;;;;;5072710;28;20125;-30
2021/12/06 00:59:53;;;;;;;33.83;21.35;;;;;;;;;;5072569;28;20508;-29
2021/12/06 01:02:22;;;;;;;36.08;20.75;;;;;;;;;;5071871;28;20543;-29
2021/12/06 01:04:49;;;;;;;35.88;20.40;;;;;;;;;;5085581;28;20039;-30
2021/12/06 01:07:18;;;;;;;35.45;22.08;;;;;;;;;;5093504;28;20047;-30
2021/12/06 01:09:44;;;;;;;32.83;20.90;;;;;;;;;;5093660;28;20044;-29
2021/12/06 01:12:13;;;;;;;31.80;19.77;;;;;;;;;;5071801;28;20048;-30
2021/12/06 01:14:39;;;;;;;35.90;19.85;;;;;;;;;;5092744;28;20437;-29
2021/12/06 01:17:08;;;;;;;31.05;18.70;;;;;;;;;;5093580;28;20546;-32
2021/12/06 01:19:37;;;;;;;34.85;20.27;;;;;;;;;;5091231;28;20032;-32
2021/12/06 01:24:39;;;;;;;36.10;20.10;;;;;;;;;;5076431;28;20465;-33
2021/12/06 01:40:06;;;;;;;38.13;21.33;;;;;;;;;;5074637;28;20481;-34
2021/12/06 01:42:32;;;;;;;33.58;20.00;;;;;;;;;;5082343;28;20032;-33
2021/12/06 01:44:59;;;;;;;38.88;20.88;;;;;;;;;;5070850;28;20033;-32
2021/12/06 01:47:33;;;;;;;40.28;21.80;;;;;;;;;;5073957;28;20051;-31
2021/12/06 01:50:00;;;;;;;38.60;21.33;;;;;;;;;;5081837;28;20040;-32
2021/12/06 01:52:31;;;;;;;35.83;20.40;;;;;;;;;;5083717;28;20036;-34
2021/12/06 01:54:58;;;;;;;41.72;21.85;;;;;;;;;;5073411;28;20040;-32
2021/12/06 01:57:25;;;;;;;43.08;22.63;;;;;;;;;;5078137;28;20523;-29
2021/12/06 01:59:53;;;;;;;41.05;22.75;;;;;;;;;;5072377;28;20131;-32
2021/12/06 02:02:19;;;;;;;42.00;23.75;;;;;;;;;;5075503;28;20044;-33
2021/12/06 02:04:49;;;;;;;41.78;22.85;;;;;;;;;;5079425;28;20124;-32
2021/12/06 02:07:16;;;;;;;43.22;23.33;;;;;;;;;;5083594;28;20036;-31
2021/12/06 02:09:47;;;;;;;46.80;24.60;;;;;;;;;;5065436;28;20055;-33
2021/12/06 02:12:14;;;;;;;45.72;23.13;;;;;;;;;;5081102;28;20514;-33
2021/12/06 02:17:33;;;;;;;40.65;22.27;;;;;;;;;;5073917;28;20037;-33
2021/12/06 02:20:04;;;;;;;42.67;21.77;;;;;;;;;;5087882;28;20054;-31
2021/12/06 02:22:37;;;;;;;50.72;25.50;;;;;;;;;;5076070;28;20558;-31
2021/12/06 02:25:14;;;;;;;47.72;23.65;;;;;;;;;;5086320;28;20093;-32
2021/12/06 02:27:50;;;;;;;43.28;22.60;;;;;;;;;;5064850;28;20037;-31
2021/12/06 02:30:17;;;;;;;43.33;22.80;;;;;;;;;;5070556;28;20378;-32
2021/12/06 02:32:44;;;;;;;45.38;23.98;;;;;;;;;;5072090;28;20124;-32
2021/12/06 02:35:12;;;;;;;46.85;24.00;;;;;;;;;;5078822;28;20044;-33
2021/12/06 02:37:42;;;;;;;49.95;25.30;;;;;;;;;;5084065;28;20048;-33
2021/12/06 02:40:10;;;;;;;51.25;25.65;;;;;;;;;;5090421;28;20442;-30
2021/12/06 02:42:40;;;;;;;41.15;23.98;;;;;;;;;;5065191;28;20397;-31
2021/12/06 02:45:09;;;;;;;48.97;24.80;;;;;;;;;;5069509;28;20067;-30
2021/12/06 02:47:36;;;;;;;44.75;24.13;;;;;;;;;;5084834;28;20035;-30
2021/12/06 02:50:08;;;;;;;49.00;24.63;;;;;;;;;;5071438;28;20094;-30
2021/12/06 02:52:34;;;;;;;45.47;25.15;;;;;;;;;;5075890;28;20123;-31
2021/12/06 02:55:07;;;;;;;50.40;24.60;;;;;;;;;;5082159;28;20042;-31
2021/12/06 02:57:45;;;;;;;47.60;25.47;;;;;;;;;;5080759;28;20036;-29
2021/12/06 03:00:11;;;;;;;43.35;23.77;;;;;;;;;;5073959;28;20115;-31
2021/12/06 03:02:40;;;;;;;56.42;27.42;;;;;;;;;;5080701;28;20040;-30
2021/12/06 03:05:07;;;;;;;55.40;25.65;;;;;;;;;;5076307;28;20047;-30
2021/12/06 03:07:36;;;;;;;56.15;27.02;;;;;;;;;;5088018;28;20040;-30
2021/12/06 03:10:14;;;;;;;58.17;27.27;;;;;;;;;;5076492;28;20036;-30
2021/12/06 03:12:40;;;;;;;57.20;26.98;;;;;;;;;;5073155;28;20128;-32
2021/12/06 03:15:08;;;;;;;60.58;28.38;;;;;;;;;;5075300;28;20463;-30
2021/12/06 03:17:37;;;;;;;52.95;25.92;;;;;;;;;;5074090;28;20048;-31
2021/12/06 03:20:06;;;;;;;54.67;27.08;;;;;;;;;;5077081;28;20029;-29
2021/12/06 03:22:36;;;;;;;61.25;27.58;;;;;;;;;;5059062;28;20084;-30
2021/12/06 03:25:10;;;;;;;67.65;28.90;;;;;;;;;;5084815;28;20040;-30
2021/12/06 03:27:37;;;;;;;62.35;29.27;;;;;;;;;;5070063;28;20037;-30
2021/12/06 03:30:08;;;;;;;60.72;28.35;;;;;;;;;;5080253;28;20047;-31
2021/12/06 03:32:40;;;;;;;65.43;29.73;;;;;;;;;;5073469;28;20036;-30
2021/12/06 03:35:13;;;;;;;62.67;28.40;;;;;;;;;;5080179;28;20050;-32
2021/12/06 03:37:39;;;;;;;57.80;25.60;;;;;;;;;;5090288;28;20730;-29
2021/12/06 03:40:06;;;;;;;60.25;27.75;;;;;;;;;;5088211;28;20045;-33
2021/12/06 03:42:32;;;;;;;58.13;26.30;;;;;;;;;;5077790;28;20033;-35
2021/12/06 03:44:58;;;;;;;53.20;25.90;;;;;;;;;;5070839;28;20044;-34
2021/12/06 03:47:29;;;;;;;57.17;27.27;;;;;;;;;;5068776;28;20111;-35
2021/12/06 03:49:59;;;;;;;55.35;27.90;;;;;;;;;;5081669;28;20040;-35
2021/12/06 03:52:25;;;;;;;59.75;28.52;;;;;;;;;;5084236;28;20040;-32
2021/12/06 03:54:52;;;;;;;65.72;28.77;;;;;;;;;;5070445;28;20114;-33
2021/12/06 03:57:21;;;;;;;61.78;29.33;;;;;;;;;;5089476;28;20554;-33
2021/12/06 03:59:47;;;;;;;61.40;29.02;;;;;;;;;;5078394;28;20101;-33
2021/12/06 04:02:16;;;;;;;59.67;27.67;;;;;;;;;;5089409;28;20063;-35
2021/12/06 04:04:45;;;;;;;62.30;30.08;;;;;;;;;;5083260;28;20082;-35
2021/12/06 04:07:15;;;;;;;62.90;29.30;;;;;;;;;;5080681;28;20040;-34
2021/12/06 04:09:44;;;;;;;58.17;27.08;;;;;;;;;;5072708;28;20037;-32
2021/12/06 04:12:10;;;;;;;58.92;28.02;;;;;;;;;;5057785;28;20128;-34
2021/12/06 04:14:37;;;;;;;61.22;27.50;;;;;;;;;;5086561;28;20044;-34
2021/12/06 04:17:03;;;;;;;61.28;26.92;;;;;;;;;;5087674;28;20425;-32
2021/12/06 04:19:32;;;;;;;60.08;28.75;;;;;;;;;;5077526;28;20054;-31
2021/12/06 04:21:58;;;;;;;55.92;27.85;;;;;;;;;;5079832;28;20498;-32
2021/12/06 04:24:28;;;;;;;67.40;30.05;;;;;;;;;;5083263;28;20036;-33
2021/12/06 04:26:58;;;;;;;64.55;29.20;;;;;;;;;;5080857;28;20119;-32
2021/12/06 04:29:24;;;;;;;66.88;28.90;;;;;;;;;;5080470;28;20078;-31
2021/12/06 04:31:55;;;;;;;65.07;29.75;;;;;;;;;;5068876;28;20196;-31
2021/12/06 04:34:29;;;;;;;61.17;28.52;;;;;;;;;;5080791;28;20035;-32
2021/12/06 04:36:55;;;;;;;67.45;29.50;;;;;;;;;;5081497;28;20081;-32
2021/12/06 04:39:22;;;;;;;60.65;28.35;;;;;;;;;;5089693;28;20029;-32
2021/12/06 04:41:48;;;;;;;67.70;29.20;;;;;;;;;;5070446;28;20044;-32
2021/12/06 04:44:14;;;;;;;60.85;27.65;;;;;;;;;;5057256;28;21256;-33
2021/12/06 04:46:49;;;;;;;70.93;31.30;;;;;;;;;;5095025;28;20032;-32
2021/12/06 04:49:16;;;;;;;74.97;30.75;;;;;;;;;;5079308;28;20615;-32
2021/12/06 04:51:50;;;;;;;66.13;28.85;;;;;;;;;;5045990;28;20048;-31
2021/12/06 04:54:26;;;;;;;77.97;32.35;;;;;;;;;;5079631;28;20533;-32
2021/12/06 04:57:00;;;;;;;77.65;32.42;;;;;;;;;;5073433;28;20493;-32
2021/12/06 04:59:37;;;;;;;71.05;30.85;;;;;;;;;;5080548;28;20041;-32
2021/12/06 05:02:07;;;;;;;69.75;29.65;;;;;;;;;;5088966;28;20154;-33
2021/12/06 05:04:34;;;;;;;75.80;32.03;;;;;;;;;;5079410;28;20040;-31
2021/12/06 05:07:20;;;;;;;83.25;33.40;;;;;;;;;;5064414;28;20091;-31
2021/12/06 05:09:47;;;;;;;76.60;33.17;;;;;;;;;;5075346;28;20091;-32
2021/12/06 05:12:14;;;;;;;75.68;31.05;;;;;;;;;;5085033;28;20074;-31
2021/12/06 05:14:40;;;;;;;80.13;33.70;;;;;;;;;;5078962;28;20043;-32
2021/12/06 05:17:06;;;;;;;81.32;33.38;;;;;;;;;;5077675;28;20047;-31
2021/12/06 05:19:33;;;;;;;74.22;31.83;;;;;;;;;;5081782;28;20048;-31
2021/12/06 05:22:05;;;;;;;74.22;32.40;;;;;;;;;;5082896;28;20070;-32
2021/12/06 05:24:31;;;;;;;78.32;32.67;;;;;;;;;;5081626;28;20078;-32
2021/12/06 05:26:58;;;;;;;76.82;31.30;;;;;;;;;;5083047;28;20036;-32
2021/12/06 05:29:27;;;;;;;83.75;32.95;;;;;;;;;;5079552;28;20036;-31
2021/12/06 05:31:58;;;;;;;75.68;31.98;;;;;;;;;;5077744;28;20068;-31
2021/12/06 05:34:32;;;;;;;74.65;33.03;;;;;;;;;;5085769;28;20103;-31
2021/12/06 05:36:58;;;;;;;82.13;32.60;;;;;;;;;;5073089;28;20405;-32
2021/12/06 05:39:30;;;;;;;77.22;33.60;;;;;;;;;;5058915;28;20037;-32
2021/12/06 05:41:58;;;;;;;77.53;33.22;;;;;;;;;;5082747;28;20482;-32
2021/12/06 05:44:24;;;;;;;75.82;32.25;;;;;;;;;;5076401;28;20074;-31
2021/12/06 05:46:50;;;;;;;73.90;31.00;;;;;;;;;;5087960;28;20043;-32
2021/12/06 05:49:19;;;;;;;81.43;33.58;;;;;;;;;;5080404;28;20116;-33
2021/12/06 05:51:45;;;;;;;74.10;32.28;;;;;;;;;;5080766;28;20110;-33
2021/12/06 05:54:11;;;;;;;67.75;29.83;;;;;;;;;;5082803;28;20039;-33
2021/12/06 05:56:37;;;;;;;77.53;32.63;;;;;;;;;;5085436;28;20474;-32
2021/12/06 05:59:13;;;;;;;66.32;30.52;;;;;;;;;;5083174;28;20028;-31
2021/12/06 06:01:39;;;;;;;64.90;29.00;;;;;;;;;;5088423;28;20409;-33
2021/12/06 06:04:05;;;;;;;60.25;28.83;;;;;;;;;;5082499;28;20063;-34
2021/12/06 06:06:33;;;;;;;57.42;27.00;;;;;;;;;;5085754;28;20553;-32
2021/12/06 06:08:59;;;;;;;60.42;28.35;;;;;;;;;;5057312;28;20047;-30
2021/12/06 06:11:25;;;;;;;63.45;27.90;;;;;;;;;;5076816;28;20036;-33
2021/12/06 06:13:52;;;;;;;56.25;25.80;;;;;;;;;;5080320;28;20119;-33
2021/12/06 06:16:21;;;;;;;62.33;26.65;;;;;;;;;;5082482;28;20040;-32
2021/12/06 06:18:49;;;;;;;60.70;27.35;;;;;;;;;;5079209;28;20044;-33
2021/12/06 06:21:24;;;;;;;63.22;29.10;;;;;;;;;;5075741;28;20074;-32
2021/12/06 06:23:50;;;;;;;65.80;30.35;;;;;;;;;;5081456;28;20094;-32
2021/12/06 06:26:16;;;;;;;68.03;29.67;;;;;;;;;;5091172;28;20067;-30
2021/12/06 06:28:42;;;;;;;68.22;29.67;;;;;;;;;;5079136;28;20036;-29
2021/12/06 06:31:08;;;;;;;70.53;28.63;;;;;;;;;;5074209;28;20849;-30
2021/12/06 06:33:34;;;;;;;68.18;29.25;;;;;;;;;;5084788;28;20463;-30
2021/12/06 06:36:00;;;;;;;68.15;29.38;;;;;;;;;;5080077;28;20040;-29
2021/12/06 06:38:27;;;;;;;66.82;29.60;;;;;;;;;;5080424;28;20070;-29
2021/12/06 06:40:53;;;;;;;73.93;30.23;;;;;;;;;;5089231;28;20048;-31
2021/12/06 06:43:20;;;;;;;64.28;28.33;;;;;;;;;;5091813;28;20126;-30
2021/12/06 06:45:46;;;;;;;72.57;31.60;;;;;;;;;;5097412;28;20042;-29
2021/12/06 06:48:13;;;;;;;66.10;30.67;;;;;;;;;;5074835;28;20447;-29
2021/12/06 06:50:39;;;;;;;77.70;31.75;;;;;;;;;;5087158;28;20036;-29
2021/12/06 06:53:05;;;;;;;69.35;29.15;;;;;;;;;;5058618;28;20117;-30
2021/12/06 06:55:31;;;;;;;62.15;29.27;;;;;;;;;;5083183;28;20040;-31
2021/12/06 06:57:58;;;;;;;63.60;27.48;;;;;;;;;;5068808;28;20048;-30
2021/12/06 07:00:29;;;;;;;65.07;28.45;;;;;;;;;;5084101;28;20040;-29
2021/12/06 07:02:56;;;;;;;61.05;28.00;;;;;;;;;;5088471;28;20036;-30
2021/12/06 07:05:23;;;;;;;62.92;28.55;;;;;;;;;;5088296;28;20032;-30
2021/12/06 07:07:52;;;;;;;67.10;28.02;;;;;;;;;;5080767;28;20055;-30
2021/12/06 07:10:18;;;;;;;65.30;29.00;;;;;;;;;;5084210;28;20036;-29
2021/12/06 07:12:48;;;;;;;61.45;27.83;;;;;;;;;;5080816;28;20118;-29
2021/12/06 07:15:15;;;;;;;65.70;29.17;;;;;;;;;;5056803;28;20120;-31
2021/12/06 07:17:42;;;;;;;64.70;28.08;;;;;;;;;;5080615;28;20119;-29
2021/12/06 07:20:09;;;;;;;58.72;27.95;;;;;;;;;;5072927;28;20047;-33
2021/12/06 07:22:35;;;;;;;62.03;27.30;;;;;;;;;;5069510;28;20044;-29
2021/12/06 07:25:02;;;;;;;61.28;27.27;;;;;;;;;;5094106;28;20040;-32
2021/12/06 07:27:28;;;;;;;62.20;28.05;;;;;;;;;;5085198;28;20056;-36
2021/12/06 07:29:54;;;;;;;63.40;26.83;;;;;;;;;;5033235;28;20087;-36
2021/12/06 07:32:20;;;;;;;55.50;26.17;;;;;;;;;;5031415;28;20050;-33
2021/12/06 07:34:48;;;;;;;55.50;26.95;;;;;;;;;;5066129;28;20119;-32
2021/12/06 07:37:14;;;;;;;56.05;26.65;;;;;;;;;;5070366;28;20082;-33
2021/12/06 07:39:40;;;;;;;56.50;25.48;;;;;;;;;;5056609;28;20044;-32
2021/12/06 07:42:06;;;;;;;48.70;23.92;;;;;;;;;;5086395;28;20513;-34
2021/12/06 07:44:34;;;;;;;49.88;23.50;;;;;;;;;;5086984;28;20190;-32
2021/12/06 07:47:00;;;;;;;50.38;24.85;;;;;;;;;;5086121;28;20048;-32
2021/12/06 07:49:26;;;;;;;53.85;25.13;;;;;;;;;;5089518;28;20071;-33
2021/12/06 07:52:03;;;;;;;51.45;24.55;;;;;;;;;;5086463;28;20301;-35
2021/12/06 07:54:29;;;;;;;53.33;25.70;;;;;;;;;;5080904;28;20032;-34
2021/12/06 07:56:55;;;;;;;57.05;23.95;;;;;;;;;;5078146;28;20035;-32
2021/12/06 07:59:21;;;;;;;53.83;24.65;;;;;;;;;;5046411;28;20162;-32
2021/12/06 08:01:49;;;;;;;62.42;28.35;;;;;;;;;;5038073;28;20037;-37
2021/12/06 08:04:15;;;;;;;65.18;29.35;;;;;;;;;;5083481;28;20028;-33
2021/12/06 08:06:42;;;;;;;61.72;28.90;;;;;;;;;;5085038;28;20436;-33
2021/12/06 08:09:08;;;;;;;63.42;29.45;;;;;;;;;;5078982;28;20432;-33
2021/12/06 08:11:34;;;;;;;75.28;32.55;;;;;;;;;;5083871;28;20036;-30
2021/12/06 08:14:00;;;;;;;75.25;32.78;;;;;;;;;;5087100;28;20074;-31
2021/12/06 08:16:28;;;;;;;77.60;33.25;;;;;;;;;;5067833;28;20041;-34
2021/12/06 08:18:54;;;;;;;85.47;34.28;;;;;;;;;;5088400;28;20397;-33
2021/12/06 08:21:22;;;;;;;82.07;34.13;;;;;;;;;;5087209;28;20110;-31
2021/12/06 08:23:51;;;;;;;79.88;35.17;;;;;;;;;;5090950;28;20032;-33
2021/12/06 08:26:20;;;;;;;83.95;34.92;;;;;;;;;;5072664;28;20138;-33
2021/12/06 08:28:47;;;;;;;89.63;37.47;;;;;;;;;;5084181;28;20038;-31
2021/12/06 08:31:14;;;;;;;91.80;38.05;;;;;;;;;;5085345;28;20036;-36
2021/12/06 08:33:40;;;;;;;98.22;37.67;;;;;;;;;;5084825;28;20123;-34
2021/12/06 08:36:07;;;;;;;101.60;41.35;;;;;;;;;;5077977;28;20041;-32
2021/12/06 08:38:34;;;;;;;96.57;38.85;;;;;;;;;;5088043;28;20035;-31
2021/12/06 08:41:01;;;;;;;94.03;39.35;;;;;;;;;;5089005;28;20055;-33
2021/12/06 08:43:28;;;;;;;96.80;40.30;;;;;;;;;;5086057;28;20046;-33
2021/12/06 08:45:55;;;;;;;102.53;41.20;;;;;;;;;;5067512;28;20032;-36
2021/12/06 08:48:26;;;;;;;82.28;34.83;;;;;;;;;;5079327;28;20028;-33
2021/12/06 08:50:53;;;;;;;77.40;34.88;;;;;;;;;;5083636;28;20142;-30
2021/12/06 08:53:19;;;;;;;77.60;35.10;;;;;;;;;;5066689;28;20044;-29
2021/12/06 08:55:45;;;;;;;83.93;35.60;;;;;;;;;;5068320;28;20123;-34
2021/12/06 08:58:11;;;;;;;85.15;36.28;;;;;;;;;;5077049;28;20503;-29
2021/12/06 09:00:37;;;;;;;74.43;31.92;;;;;;;;;;5093343;28;20127;-28
2021/12/06 09:03:04;;;;;;;71.60;32.25;;;;;;;;;;5094448;28;20032;-30
2021/12/06 09:05:32;;;;;;;61.10;28.38;;;;;;;;;;5094205;28;20047;-29
2021/12/06 09:07:58;;;;;;;65.03;29.63;;;;;;;;;;5094114;28;20577;-28
2021/12/06 09:10:24;;;;;;;70.60;31.45;;;;;;;;;;5094005;28;20044;-28
2021/12/06 09:12:51;;;;;;;72.53;29.58;;;;;;;;;;5093781;28;20071;-29
2021/12/06 09:15:17;;;;;;;73.30;31.58;;;;;;;;;;5093988;28;20046;-28
2021/12/06 09:17:44;;;;;;;70.88;30.08;;;;;;;;;;5075782;28;20090;-31
2021/12/06 09:20:12;;;;;;;59.63;26.85;;;;;;;;;;5093803;28;20485;-29
2021/12/06 09:22:39;;;;;;;56.75;26.45;;;;;;;;;;5093563;28;20089;-28
2021/12/06 09:25:07;;;;;;;61.03;26.73;;;;;;;;;;5071841;28;20041;-29
2021/12/06 09:27:33;;;;;;;48.35;22.75;;;;;;;;;;5091981;28;20036;-29
2021/12/06 09:29:59;;;;;;;44.72;22.23;;;;;;;;;;5093622;28;20055;-30
2021/12/06 09:32:25;;;;;;;48.28;22.38;;;;;;;;;;5088953;28;20039;-31
2021/12/06 09:34:57;;;;;;;47.92;22.85;;;;;;;;;;5090085;28;20036;-30
2021/12/06 09:37:23;;;;;;;50.47;22.35;;;;;;;;;;5091587;28;20040;-30
2021/12/06 09:39:49;;;;;;;43.38;20.95;;;;;;;;;;5084069;28;20370;-30
2021/12/06 09:42:16;;;;;;;42.33;20.77;;;;;;;;;;5086031;28;20077;-30
2021/12/06 09:44:42;;;;;;;41.85;20.10;;;;;;;;;;5086744;28;20435;-30
2021/12/06 09:47:08;;;;;;;39.80;19.70;;;;;;;;;;5098419;28;20512;-32
2021/12/06 09:49:34;;;;;;;34.60;17.98;;;;;;;;;;5090298;28;20446;-30
2021/12/06 09:52:01;;;;;;;33.17;18.13;;;;;;;;;;5090455;28;20039;-30
2021/12/06 09:54:32;;;;;;;33.85;17.77;;;;;;;;;;5092750;28;20345;-30
2021/12/06 09:56:59;;;;;;;32.13;17.23;;;;;;;;;;5093084;28;20040;-29
2021/12/06 09:59:25;;;;;;;31.13;17.00;;;;;;;;;;5093200;28;20485;-32
2021/12/06 10:01:56;;;;;;;33.75;17.58;;;;;;;;;;5071874;28;20137;-29
2021/12/06 10:04:24;;;;;;;30.02;15.82;;;;;;;;;;5089784;28;20485;-30
2021/12/06 10:06:50;;;;;;;34.35;17.38;;;;;;;;;;5092999;28;20046;-29
2021/12/06 10:09:18;;;;;;;33.00;17.55;;;;;;;;;;5092886;28;20036;-30
2021/12/06 10:11:45;;;;;;;32.90;16.65;;;;;;;;;;5092571;28;20036;-29
2021/12/06 10:14:11;;;;;;;33.50;18.63;;;;;;;;;;5093117;28;20048;-31
2021/12/06 10:16:38;;;;;;;36.10;17.92;;;;;;;;;;5092320;28;20043;-34
2021/12/06 10:19:05;;;;;;;33.85;18.98;;;;;;;;;;5085339;28;20039;-32
2021/12/06 10:21:32;;;;;;;38.17;19.25;;;;;;;;;;5076001;28;20444;-33
2021/12/06 10:23:58;;;;;;;34.50;18.42;;;;;;;;;;5082432;28;20033;-32
2021/12/06 10:26:28;;;;;;;35.88;18.90;;;;;;;;;;5067803;28;20047;-33
2021/12/06 10:29:02;;;;;;;40.33;19.15;;;;;;;;;;5092377;28;20043;-32
2021/12/06 10:31:30;;;;;;;39.83;20.02;;;;;;;;;;5072345;28;20046;-34
2021/12/06 10:33:56;;;;;;;40.60;19.88;;;;;;;;;;5057285;28;20120;-34
2021/12/06 10:36:24;;;;;;;41.97;20.08;;;;;;;;;;5077864;28;20051;-34
2021/12/06 10:38:54;;;;;;;37.28;19.23;;;;;;;;;;5079248;28;20499;-34
2021/12/06 10:41:29;;;;;;;38.33;19.88;;;;;;;;;;5080712;28;20555;-35
2021/12/06 10:43:57;;;;;;;40.25;20.13;;;;;;;;;;5085595;28;20048;-33
2021/12/06 10:46:27;;;;;;;42.38;21.60;;;;;;;;;;5098816;28;20067;-35
2021/12/06 10:48:59;;;;;;;47.92;22.83;;;;;;;;;;5084580;28;20051;-36
2021/12/06 10:51:26;;;;;;;41.78;20.75;;;;;;;;;;5082777;28;20426;-35
2021/12/06 10:54:02;;;;;;;41.03;22.30;;;;;;;;;;5085818;28;20554;-32
2021/12/06 10:56:46;;;;;;;39.83;19.90;;;;;;;;;;5079310;28;20040;-32
2021/12/06 10:59:20;;;;;;;39.37;20.10;;;;;;;;;;5086058;28;20048;-35
2021/12/06 11:01:47;;;;;;;35.13;19.23;;;;;;;;;;5087500;28;20044;-33
2021/12/06 11:04:16;;;;;;;37.17;19.08;;;;;;;;;;5084921;28;20439;-34
2021/12/06 11:07:05;;;;;;;27.92;16.17;;;;;;;;;;5074685;28;20075;-29
2021/12/06 11:09:33;;;;;;;27.83;15.60;;;;;;;;;;5077198;28;20122;-32
2021/12/06 11:12:09;;;;;;;31.65;16.50;;;;;;;;;;5088118;28;20036;-29
2021/12/06 11:14:39;;;;;;;39.33;19.60;;;;;;;;;;5090831;28;20312;-30
2021/12/06 11:17:18;;;;;;;32.10;17.23;;;;;;;;;;5089071;28;20040;-29
2021/12/06 11:19:45;;;;;;;34.80;17.92;;;;;;;;;;5089530;28;20088;-30
2021/12/06 11:22:12;;;;;;;29.80;17.77;;;;;;;;;;5086804;28;20051;-33
2021/12/06 11:24:39;;;;;;;30.60;15.95;;;;;;;;;;5082850;28;20032;-33
2021/12/06 11:27:13;;;;;;;31.50;16.10;;;;;;;;;;5085843;28;20105;-33
2021/12/06 11:30:03;;;;;;;32.58;16.98;;;;;;;;;;5083655;28;20868;-31
2021/12/06 11:32:31;;;;;;;30.63;16.35;;;;;;;;;;5091261;28;20546;-30
2021/12/06 11:35:06;;;;;;;34.80;17.55;;;;;;;;;;5090585;28;20027;-30
2021/12/06 11:38:00;;;;;;;33.78;17.83;;;;;;;;;;5088053;28;20064;-31
2021/12/06 11:40:33;;;;;;;36.10;18.08;;;;;;;;;;5087629;28;20633;-30
2021/12/06 11:43:04;;;;;;;38.10;18.08;;;;;;;;;;5071813;28;20052;-30
2021/12/06 11:45:55;;;;;;;35.58;17.55;;;;;;;;;;5078247;28;20542;-32
2021/12/06 11:48:50;;;;;;;34.38;17.42;;;;;;;;;;5087581;28;20115;-32
2021/12/06 11:51:18;;;;;;;38.95;19.85;;;;;;;;;;5060734;28;20044;-32
2021/12/06 11:53:49;;;;;;;41.72;22.73;;;;;;;;;;5089144;28;20118;-30
2021/12/06 11:56:21;;;;;;;43.72;20.73;;;;;;;;;;5086684;28;20119;-32
2021/12/06 11:58:49;;;;;;;38.70;18.55;;;;;;;;;;5077397;28;20072;-33
2021/12/06 12:01:17;;;;;;;40.78;19.27;;;;;;;;;;5077743;28;20040;-32
2021/12/06 12:03:46;;;;;;;36.92;18.08;;;;;;;;;;5083480;28;20546;-32
2021/12/06 12:06:28;;;;;;;33.60;17.27;;;;;;;;;;5086073;28;20039;-32
2021/12/06 12:09:14;;;;;;;31.63;17.25;;;;;;;;;;5065719;28;20047;-34
2021/12/06 12:11:59;;;;;;;36.80;18.73;;;;;;;;;;5083938;28;20059;-33
2021/12/06 12:14:46;;;;;;;39.08;19.80;;;;;;;;;;5087561;28;20052;-33
2021/12/06 12:17:19;;;;;;;40.80;19.15;;;;;;;;;;5083911;28;20054;-33
2021/12/06 12:19:48;;;;;;;;;;;;;;;;;;5091359;28;20032;-33
2021/12/06 12:22:15;;;;;;;34.83;17.88;;;;;;;;;;5087179;28;19924;-33
2021/12/06 12:24:44;;;;;;;37.47;20.02;;;;;;;;;;5090982;28;20501;-32
2021/12/06 12:30:38;;;;;;;44.20;20.83;;;;;;;;;;5080440;28;20401;-30
2021/12/06 12:33:06;;;;;;;45.13;21.83;;;;;;;;;;5082008;28;20036;-31
2021/12/06 12:35:32;;;;;;;44.95;22.80;;;;;;;;;;5074767;28;20036;-31
2021/12/06 12:38:00;;;;;;;45.40;22.10;;;;;;;;;;5075624;28;20386;-31
2021/12/06 12:40:28;;;;;;;42.08;23.95;;;;;;;;;;5069499;28;20083;-31
2021/12/06 12:43:08;;;;;;;48.80;24.63;;;;;;;;;;5087319;28;20032;-31
2021/12/06 12:45:39;;;;;;;55.08;26.45;;;;;;;;;;5082009;28;20423;-30
2021/12/06 12:48:08;;;;;;;52.50;25.50;;;;;;;;;;5085235;28;20509;-30
2021/12/06 12:50:34;;;;;;;50.42;26.05;;;;;;;;;;5075709;28;20043;-30
2021/12/06 12:53:07;;;;;;;53.20;25.73;;;;;;;;;;5085068;28;20075;-32
2021/12/06 12:55:35;;;;;;;50.38;27.10;;;;;;;;;;5054897;28;20080;-31
2021/12/06 12:58:20;;;;;;;49.40;27.52;;;;;;;;;;5085299;28;20090;-31
2021/12/06 13:00:48;;;;;;;56.17;27.83;;;;;;;;;;5076453;28;20036;-34
2021/12/06 13:03:33;;;;;;;60.63;29.85;;;;;;;;;;5061200;28;20397;-32
2021/12/06 13:06:19;;;;;;;55.70;27.92;;;;;;;;;;5072195;28;20454;-31
2021/12/06 13:08:46;;;;;;;61.20;33.08;;;;;;;;;;5077307;28;20035;-31
2021/12/06 13:11:15;;;;;;;60.97;32.88;;;;;;;;;;5092608;28;20084;-32
2021/12/06 13:13:50;;;;;;;63.75;31.85;;;;;;;;;;5087793;28;20070;-28
2021/12/06 13:17:25;;;;;;;64.53;32.97;;;;;;;;;;5071768;28;20041;-30
2021/12/06 13:19:42;;;;;;;66.90;34.95;;;;;;;;;;5054149;28;20055;-30
2021/12/06 13:22:11;;;;;;;70.95;36.17;;;;;;;;;;5073789;28;20461;-30
2021/12/06 13:24:43;;;;;;;64.90;33.58;;;;;;;;;;5088878;28;20040;-33
2021/12/06 13:27:29;;;;;;;71.15;39.40;;;;;;;;;;5065495;28;20104;-32
2021/12/06 13:30:04;;;;;;;72.65;37.97;;;;;;;;;;5029397;28;20077;-32
2021/12/06 13:32:33;;;;;;;73.13;37.80;;;;;;;;;;5088472;28;20454;-32
2021/12/06 13:35:40;;;;;;;73.22;36.53;;;;;;;;;;5092315;28;20489;-33
2021/12/06 13:38:09;;;;;;;69.53;36.47;;;;;;;;;;5024090;28;20128;-33
2021/12/06 13:40:41;;;;;;;67.82;35.10;;;;;;;;;;5071144;28;20047;-31
2021/12/06 13:43:12;;;;;;;69.90;35.63;;;;;;;;;;5089130;28;20110;-31
2021/12/06 13:45:40;;;;;;;66.93;35.95;;;;;;;;;;5086843;28;20572;-34
2021/12/06 13:48:27;;;;;;;60.25;33.40;;;;;;;;;;5086575;28;20032;-34
2021/12/06 13:50:54;;;;;;;69.50;37.70;;;;;;;;;;5082962;28;20058;-32
2021/12/06 13:53:27;;;;;;;62.45;34.08;;;;;;;;;;5077173;28;20054;-32
2021/12/06 13:55:54;;;;;;;64.13;33.47;;;;;;;;;;5081666;28;20044;-32
2021/12/06 13:58:20;;;;;;;61.15;32.58;;;;;;;;;;5057948;28;20467;-33
2021/12/06 14:00:47;;;;;;;62.95;32.92;;;;;;;;;;5078724;28;20516;-34
2021/12/06 14:03:18;;;;;;;63.95;33.53;;;;;;;;;;5073320;28;20093;-33
2021/12/06 14:09:02;;;;;;;53.25;29.05;;;;;;;;;;5074460;28;20042;-33
2021/12/06 14:11:30;;;;;;;58.08;30.85;;;;;;;;;;5084394;28;20051;-34
2021/12/06 14:13:58;;;;;;;52.85;29.05;;;;;;;;;;5092033;28;20040;-28
2021/12/06 14:16:33;;;;;;;52.83;28.65;;;;;;;;;;5057593;28;20037;-36
2021/12/06 14:19:02;;;;;;;59.17;30.80;;;;;;;;;;5092726;28;20069;-29
2021/12/06 14:21:29;;;;;;;60.35;30.75;;;;;;;;;;5080184;28;20032;-30
2021/12/06 14:23:58;;;;;;;49.90;27.67;;;;;;;;;;5100620;28;20039;-30
2021/12/06 14:26:50;;;;;;;53.35;29.92;;;;;;;;;;5082783;28;20082;-30
2021/12/06 14:29:17;;;;;;;54.63;28.50;;;;;;;;;;5087541;28;20405;-30
2021/12/06 14:31:48;;;;;;;57.17;30.85;;;;;;;;;;5091599;28;20044;-32
2021/12/06 14:34:17;;;;;;;54.53;29.15;;;;;;;;;;5089846;28;20102;-30
2021/12/06 14:36:44;;;;;;;54.45;28.27;;;;;;;;;;5090648;28;20073;-30
2021/12/06 14:39:15;;;;;;;55.53;28.55;;;;;;;;;;5091531;28;20055;-30
2021/12/06 14:41:49;;;;;;;50.25;27.58;;;;;;;;;;5075198;28;20052;-30
2021/12/06 14:44:29;;;;;;;55.65;28.77;;;;;;;;;;5082577;28;20119;-31
2021/12/06 14:46:55;;;;;;;55.53;30.30;;;;;;;;;;5084899;28;20454;-31
2021/12/06 14:49:21;;;;;;;59.50;30.52;;;;;;;;;;5087202;28;20067;-30
2021/12/06 14:51:47;;;;;;;56.33;30.02;;;;;;;;;;5088449;28;20039;-30
2021/12/06 14:54:21;;;;;;;53.58;30.67;;;;;;;;;;5085540;28;20132;-30